sensor_id;sensor_type;location;lat;lon;timestamp;pressure;altitude;pressure_sealevel;temperature;humidity
66164;BME280;52962;51.088;3.096;2023-07-13T00:00:16;101216.88;;;17.47;100.00
66164;BME280;52962;51.088;3.096;2023-07-13T00:02:44;101204.44;;;17.45;100.00
66164;BME280;52962;51.088;3.096;2023-07-13T00:05:13;101205.34;;;17.36;100.00
66164;BME280;52962;51.088;3.096;2023-07-13T00:07:42;101204.47;;;17.31;100.00
66164;BME280;52962;51.088;3.096;2023-07-13T00:10:13;101201.81;;;17.31;100.00
66164;BME280;52962;51.088;3.096;2023-07-13T00:12:41;101204.47;;;17.25;100.00
66164;BME280;52962;51.088;3.096;2023-07-13T00:15:14;101204.50;;;17.13;100.00
66164;BME280;52962;51.088;3.096;2023-07-13T00:17:44;101203.59;;;17.20;100.00
66164;BME280;52962;51.088;3.096;2023-07-13T00:20:12;101208.00;;;17.38;100.00
66164;BME280;52962;51.088;3.096;2023-07-13T00:22:42;101207.09;;;17.58;100.00
66164;BME280;52962;51.088;3.096;2023-07-13T00:25:11;101206.19;;;17.58;100.00
66164;BME280;52962;51.088;3.096;2023-07-13T00:27:44;101209.75;;;17.58;100.00
66164;BME280;52962;51.088;3.096;2023-07-13T00:30:16;101207.09;;;17.58;100.00
66164;BME280;52962;51.088;3.096;2023-07-13T00:32:44;101203.53;;;17.58;100.00
66164;BME280;52962;51.088;3.096;2023-07-13T00:35:13;101198.22;;;17.56;100.00
66164;BME280;52962;51.088;3.096;2023-07-13T00:37:43;101197.31;;;17.56;100.00
66164;BME280;52962;51.088;3.096;2023-07-13T00:40:13;101207.97;;;17.54;100.00
66164;BME280;52962;51.088;3.096;2023-07-13T00:42:43;101192.91;;;17.47;100.00
66164;BME280;52962;51.088;3.096;2023-07-13T00:48:21;101205.34;;;17.36;100.00
66164;BME280;52962;51.088;3.096;2023-07-13T00:50:53;101206.22;;;17.40;100.00
66164;BME280;52962;51.088;3.096;2023-07-13T00:53:25;101201.78;;;17.40;100.00
66164;BME280;52962;51.088;3.096;2023-07-13T00:55:55;101202.69;;;17.36;100.00
66164;BME280;52962;51.088;3.096;2023-07-13T00:58:25;101201.81;;;17.36;100.00
66164;BME280;52962;51.088;3.096;2023-07-13T01:00:54;101201.81;;;17.37;100.00
66164;BME280;52962;51.088;3.096;2023-07-13T01:03:22;101210.69;;;17.36;100.00
66164;BME280;52962;51.088;3.096;2023-07-13T01:05:53;101212.44;;;17.36;100.00
66164;BME280;52962;51.088;3.096;2023-07-13T01:08:22;101214.22;;;17.40;100.00
66164;BME280;52962;51.088;3.096;2023-07-13T01:10:55;101210.66;;;17.39;100.00
66164;BME280;52962;51.088;3.096;2023-07-13T01:13:25;101219.56;;;17.26;100.00
66164;BME280;52962;51.088;3.096;2023-07-13T01:15:55;101220.44;;;17.36;100.00
66164;BME280;52962;51.088;3.096;2023-07-13T01:18:26;101219.56;;;17.37;100.00
66164;BME280;52962;51.088;3.096;2023-07-13T01:20:58;101222.22;;;17.35;100.00
66164;BME280;52962;51.088;3.096;2023-07-13T01:23:28;101210.69;;;17.33;100.00
66164;BME280;52962;51.088;3.096;2023-07-13T01:25:58;101207.13;;;17.31;100.00
66164;BME280;52962;51.088;3.096;2023-07-13T01:28:27;101208.91;;;17.29;100.00
66164;BME280;52962;51.088;3.096;2023-07-13T01:30:58;101215.13;;;17.29;100.00
66164;BME280;52962;51.088;3.096;2023-07-13T01:33:26;101216.91;;;17.27;100.00
66164;BME280;52962;51.088;3.096;2023-07-13T01:35:57;101213.34;;;17.25;100.00
66164;BME280;52962;51.088;3.096;2023-07-13T01:38:26;101221.34;;;17.25;100.00
66164;BME280;52962;51.088;3.096;2023-07-13T01:40:54;101221.34;;;17.25;100.00
66164;BME280;52962;51.088;3.096;2023-07-13T01:43:25;101221.34;;;17.24;100.00
66164;BME280;52962;51.088;3.096;2023-07-13T01:45:53;101219.56;;;17.21;100.00
66164;BME280;52962;51.088;3.096;2023-07-13T01:48:35;101218.69;;;17.21;100.00
66164;BME280;52962;51.088;3.096;2023-07-13T01:51:05;101222.22;;;17.18;100.00
66164;BME280;52962;51.088;3.096;2023-07-13T01:53:33;101225.78;;;17.16;100.00
66164;BME280;52962;51.088;3.096;2023-07-13T01:56:01;101216.91;;;17.14;100.00
66164;BME280;52962;51.088;3.096;2023-07-13T01:58:29;101215.13;;;17.16;100.00
66164;BME280;52962;51.088;3.096;2023-07-13T02:00:58;101224.00;;;17.21;100.00
66164;BME280;52962;51.088;3.096;2023-07-13T02:03:27;101233.75;;;17.16;100.00
66164;BME280;52962;51.088;3.096;2023-07-13T02:05:57;101225.78;;;17.11;100.00
66164;BME280;52962;51.088;3.096;2023-07-13T02:08:27;101221.34;;;17.18;100.00
66164;BME280;52962;51.088;3.096;2023-07-13T02:10:56;101216.03;;;17.18;100.00
66164;BME280;52962;51.088;3.096;2023-07-13T02:13:24;101216.91;;;17.15;100.00
66164;BME280;52962;51.088;3.096;2023-07-13T02:15:52;101215.13;;;17.14;100.00
66164;BME280;52962;51.088;3.096;2023-07-13T02:18:20;101218.69;;;17.13;100.00
66164;BME280;52962;51.088;3.096;2023-07-13T02:20:48;101216.03;;;17.12;100.00
66164;BME280;52962;51.088;3.096;2023-07-13T02:23:17;101225.78;;;17.08;100.00
66164;BME280;52962;51.088;3.096;2023-07-13T02:25:47;101217.78;;;17.07;100.00
66164;BME280;52962;51.088;3.096;2023-07-13T02:28:16;101218.69;;;17.10;100.00
66164;BME280;52962;51.088;3.096;2023-07-13T02:30:44;101227.56;;;17.11;100.00
66164;BME280;52962;51.088;3.096;2023-07-13T02:33:12;101218.69;;;17.09;100.00
66164;BME280;52962;51.088;3.096;2023-07-13T02:35:40;101219.56;;;17.08;100.00
66164;BME280;52962;51.088;3.096;2023-07-13T02:38:08;101219.56;;;17.05;100.00
66164;BME280;52962;51.088;3.096;2023-07-13T02:40:36;101211.59;;;16.97;100.00
66164;BME280;52962;51.088;3.096;2023-07-13T02:43:06;101211.59;;;16.95;100.00
66164;BME280;52962;51.088;3.096;2023-07-13T02:45:34;101222.22;;;16.94;100.00
66164;BME280;52962;51.088;3.096;2023-07-13T02:48:03;101224.00;;;16.89;100.00
66164;BME280;52962;51.088;3.096;2023-07-13T02:50:31;101219.56;;;17.00;100.00
66164;BME280;52962;51.088;3.096;2023-07-13T02:52:59;101219.56;;;17.12;100.00
66164;BME280;52962;51.088;3.096;2023-07-13T02:55:27;101221.34;;;17.15;100.00
66164;BME280;52962;51.088;3.096;2023-07-13T02:57:56;101219.56;;;17.14;100.00
66164;BME280;52962;51.088;3.096;2023-07-13T03:00:26;101230.22;;;17.14;100.00
66164;BME280;52962;51.088;3.096;2023-07-13T03:02:54;101230.22;;;17.14;100.00
66164;BME280;52962;51.088;3.096;2023-07-13T03:05:25;101236.41;;;17.10;100.00
66164;BME280;52962;51.088;3.096;2023-07-13T03:07:55;101233.75;;;17.04;100.00
66164;BME280;52962;51.088;3.096;2023-07-13T03:10:23;101239.09;;;16.99;100.00
66164;BME280;52962;51.088;3.096;2023-07-13T03:12:52;101237.31;;;16.89;100.00
66164;BME280;52962;51.088;3.096;2023-07-13T03:15:26;101244.41;;;16.94;100.00
66164;BME280;52962;51.088;3.096;2023-07-13T03:17:57;101251.50;;;16.92;100.00
66164;BME280;52962;51.088;3.096;2023-07-13T03:20:25;101245.28;;;16.90;100.00
66164;BME280;52962;51.088;3.096;2023-07-13T03:22:53;101242.63;;;16.90;100.00
66164;BME280;52962;51.088;3.096;2023-07-13T03:25:22;101241.75;;;16.93;100.00
66164;BME280;52962;51.088;3.096;2023-07-13T03:27:50;101246.16;;;16.95;100.00
66164;BME280;52962;51.088;3.096;2023-07-13T03:30:18;101253.28;;;16.96;100.00
66164;BME280;52962;51.088;3.096;2023-07-13T03:32:48;101245.28;;;16.98;100.00
66164;BME280;52962;51.088;3.096;2023-07-13T03:35:17;101255.03;;;17.00;100.00
66164;BME280;52962;51.088;3.096;2023-07-13T03:37:46;101253.28;;;16.99;100.00
66164;BME280;52962;51.088;3.096;2023-07-13T03:40:18;101253.28;;;16.99;100.00
66164;BME280;52962;51.088;3.096;2023-07-13T03:42:46;101259.47;;;17.05;100.00
66164;BME280;52962;51.088;3.096;2023-07-13T03:45:17;101256.81;;;17.05;100.00
66164;BME280;52962;51.088;3.096;2023-07-13T03:47:47;101254.16;;;17.06;100.00
66164;BME280;52962;51.088;3.096;2023-07-13T03:50:17;101253.28;;;17.07;100.00
66164;BME280;52962;51.088;3.096;2023-07-13T03:52:45;101263.03;;;17.07;100.00
66164;BME280;52962;51.088;3.096;2023-07-13T03:55:15;101256.81;;;17.08;100.00
66164;BME280;52962;51.088;3.096;2023-07-13T03:57:44;101256.81;;;17.11;100.00
66164;BME280;52962;51.088;3.096;2023-07-13T04:00:13;101262.16;;;17.11;100.00
66164;BME280;52962;51.088;3.096;2023-07-13T04:02:42;101272.78;;;17.14;100.00
66164;BME280;52962;51.088;3.096;2023-07-13T04:05:12;101259.47;;;17.12;100.00
66164;BME280;52962;51.088;3.096;2023-07-13T04:07:40;101269.25;;;17.15;100.00
66164;BME280;52962;51.088;3.096;2023-07-13T04:10:09;101274.56;;;17.15;100.00
66164;BME280;52962;51.088;3.096;2023-07-13T04:12:37;101271.03;;;17.16;100.00
66164;BME280;52962;51.088;3.096;2023-07-13T04:15:06;101279.00;;;17.17;100.00
66164;BME280;52962;51.088;3.096;2023-07-13T04:17:35;101279.00;;;17.19;100.00
66164;BME280;52962;51.088;3.096;2023-07-13T04:20:04;101277.22;;;17.21;100.00
66164;BME280;52962;51.088;3.096;2023-07-13T04:22:34;101273.69;;;17.23;100.00
66164;BME280;52962;51.088;3.096;2023-07-13T04:25:02;101271.91;;;17.25;100.00
66164;BME280;52962;51.088;3.096;2023-07-13T04:27:32;101273.69;;;17.28;100.00
66164;BME280;52962;51.088;3.096;2023-07-13T04:29:59;101273.69;;;17.32;100.00
66164;BME280;52962;51.088;3.096;2023-07-13T04:32:28;101275.44;;;17.35;100.00
66164;BME280;52962;51.088;3.096;2023-07-13T04:34:56;101283.44;;;17.38;100.00
66164;BME280;52962;51.088;3.096;2023-07-13T04:37:26;101279.88;;;17.36;100.00
66164;BME280;52962;51.088;3.096;2023-07-13T04:39:57;101284.31;;;17.42;100.00
66164;BME280;52962;51.088;3.096;2023-07-13T04:42:25;101286.09;;;17.44;100.00
66164;BME280;52962;51.088;3.096;2023-07-13T04:44:54;101290.53;;;17.45;100.00
66164;BME280;52962;51.088;3.096;2023-07-13T04:47:21;101298.53;;;17.50;100.00
66164;BME280;52962;51.088;3.096;2023-07-13T04:49:50;101295.84;;;17.51;100.00
66164;BME280;52962;51.088;3.096;2023-07-13T04:52:18;101291.41;;;17.56;100.00
66164;BME280;52962;51.088;3.096;2023-07-13T04:54:46;101297.63;;;17.58;100.00
66164;BME280;52962;51.088;3.096;2023-07-13T04:57:16;101307.38;;;17.62;100.00
66164;BME280;52962;51.088;3.096;2023-07-13T04:59:44;101300.28;;;17.64;100.00
66164;BME280;52962;51.088;3.096;2023-07-13T05:02:12;101301.19;;;17.67;100.00
66164;BME280;52962;51.088;3.096;2023-07-13T05:04:41;101305.59;;;17.71;100.00
66164;BME280;52962;51.088;3.096;2023-07-13T05:07:09;101300.28;;;17.74;100.00
66164;BME280;52962;51.088;3.096;2023-07-13T05:09:37;101302.94;;;17.77;100.00
66164;BME280;52962;51.088;3.096;2023-07-13T05:12:07;101306.47;;;17.86;100.00
66164;BME280;52962;51.088;3.096;2023-07-13T05:14:37;101316.22;;;17.93;100.00
66164;BME280;52962;51.088;3.096;2023-07-13T05:17:06;101317.13;;;17.88;100.00
66164;BME280;52962;51.088;3.096;2023-07-13T05:19:34;101325.09;;;18.00;100.00
66164;BME280;52962;51.088;3.096;2023-07-13T05:22:02;101326.84;;;18.07;100.00
66164;BME280;52962;51.088;3.096;2023-07-13T05:24:30;101326.84;;;18.12;100.00
66164;BME280;52962;51.088;3.096;2023-07-13T05:26:58;101327.72;;;18.15;100.00
66164;BME280;52962;51.088;3.096;2023-07-13T05:29:27;101336.59;;;18.17;100.00
66164;BME280;52962;51.088;3.096;2023-07-13T05:31:56;101330.34;;;18.23;100.00
66164;BME280;52962;51.088;3.096;2023-07-13T05:34:25;101332.13;;;18.25;100.00
66164;BME280;52962;51.088;3.096;2023-07-13T05:36:53;101337.44;;;18.30;100.00
66164;BME280;52962;51.088;3.096;2023-07-13T05:39:21;101333.88;;;18.34;100.00
66164;BME280;52962;51.088;3.096;2023-07-13T05:41:49;101336.53;;;18.39;100.00
66164;BME280;52962;51.088;3.096;2023-07-13T05:44:17;101345.38;;;18.44;100.00
66164;BME280;52962;51.088;3.096;2023-07-13T05:46:46;101338.25;;;18.52;100.00
66164;BME280;52962;51.088;3.096;2023-07-13T05:49:16;101343.56;;;18.58;100.00
66164;BME280;52962;51.088;3.096;2023-07-13T05:51:44;101338.22;;;18.67;100.00
66164;BME280;52962;51.088;3.096;2023-07-13T05:54:12;101345.25;;;18.77;100.00
66164;BME280;52962;51.088;3.096;2023-07-13T05:56:41;101339.81;;;18.92;100.00
66164;BME280;52962;51.088;3.096;2023-07-13T05:59:09;101341.47;;;19.10;100.00
66164;BME280;52962;51.088;3.096;2023-07-13T06:01:37;101348.53;;;19.19;100.00
66164;BME280;52962;51.088;3.096;2023-07-13T06:04:05;101347.63;;;19.23;100.00
66164;BME280;52962;51.088;3.096;2023-07-13T06:06:35;101349.44;;;19.19;100.00
66164;BME280;52962;51.088;3.096;2023-07-13T06:09:03;101352.09;;;19.21;100.00
66164;BME280;52962;51.088;3.096;2023-07-13T06:11:31;101364.56;;;19.20;100.00
66164;BME280;52962;51.088;3.096;2023-07-13T06:14:00;101365.38;;;19.28;100.00
66164;BME280;52962;51.088;3.096;2023-07-13T06:16:28;101366.16;;;19.44;100.00
66164;BME280;52962;51.088;3.096;2023-07-13T06:18:56;101363.41;;;19.59;100.00
66164;BME280;52962;51.088;3.096;2023-07-13T06:21:24;101365.97;;;19.72;100.00
66164;BME280;52962;51.088;3.096;2023-07-13T06:23:54;101378.28;;;19.86;100.00
66164;BME280;52962;51.088;3.096;2023-07-13T06:26:22;101379.97;;;19.95;100.00
66164;BME280;52962;51.088;3.096;2023-07-13T06:28:50;101372.81;;;19.97;100.00
66164;BME280;52962;51.088;3.096;2023-07-13T06:31:19;101375.50;;;19.97;100.00
66164;BME280;52962;51.088;3.096;2023-07-13T06:33:47;101369.28;;;19.95;100.00
66164;BME280;52962;51.088;3.096;2023-07-13T06:36:15;101373.78;;;19.91;100.00
66164;BME280;52962;51.088;3.096;2023-07-13T06:38:43;101376.44;;;19.93;100.00
66164;BME280;52962;51.088;3.096;2023-07-13T06:41:13;101378.22;;;19.92;100.00
66164;BME280;52962;51.088;3.096;2023-07-13T06:43:41;101374.56;;;20.03;100.00
66164;BME280;52962;51.088;3.096;2023-07-13T06:46:10;101381.72;;;19.99;100.00
66164;BME280;52962;51.088;3.096;2023-07-13T06:48:38;101380.94;;;19.88;100.00
66164;BME280;52962;51.088;3.096;2023-07-13T06:51:06;101381.91;;;19.78;100.00
66164;BME280;52962;51.088;3.096;2023-07-13T06:53:35;101387.19;;;19.87;100.00
66164;BME280;52962;51.088;3.096;2023-07-13T06:56:03;101388.69;;;20.15;100.00
66164;BME280;52962;51.088;3.096;2023-07-13T06:58:34;101384.03;;;20.33;100.00
66164;BME280;52962;51.088;3.096;2023-07-13T07:01:03;101378.16;;;20.80;100.00
66164;BME280;52962;51.088;3.096;2023-07-13T07:03:34;101382.38;;;20.95;100.00
66164;BME280;52962;51.088;3.096;2023-07-13T07:06:13;101390.38;;;20.98;100.00
66164;BME280;52962;51.088;3.096;2023-07-13T07:08:41;101385.56;;;21.24;100.00
66164;BME280;52962;51.088;3.096;2023-07-13T07:11:12;101382.47;;;21.50;100.00
66164;BME280;52962;51.088;3.096;2023-07-13T07:13:42;101382.78;;;21.84;100.00
66164;BME280;52962;51.088;3.096;2023-07-13T07:16:10;101384.94;;;22.14;100.00
66164;BME280;52962;51.088;3.096;2023-07-13T07:18:38;101390.69;;;22.41;100.00
66164;BME280;52962;51.088;3.096;2023-07-13T07:21:07;101385.06;;;22.53;100.00
66164;BME280;52962;51.088;3.096;2023-07-13T07:23:36;101392.22;;;22.54;100.00
66164;BME280;52962;51.088;3.096;2023-07-13T07:26:05;101395.75;;;22.56;100.00
66164;BME280;52962;51.088;3.096;2023-07-13T07:28:35;101391.06;;;22.67;100.00
66164;BME280;52962;51.088;3.096;2023-07-13T07:31:08;101389.72;;;22.45;100.00
66164;BME280;52962;51.088;3.096;2023-07-13T07:33:39;101399.44;;;22.01;100.00
66164;BME280;52962;51.088;3.096;2023-07-13T07:36:08;101403.66;;;22.17;100.00
66164;BME280;52962;51.088;3.096;2023-07-13T07:38:39;101400.06;;;22.18;100.00
66164;BME280;52962;51.088;3.096;2023-07-13T07:41:07;101398.50;;;22.05;100.00
66164;BME280;52962;51.088;3.096;2023-07-13T07:43:38;101410.38;;;22.40;100.00
66164;BME280;52962;51.088;3.096;2023-07-13T07:46:08;101403.06;;;22.48;100.00
66164;BME280;52962;51.088;3.096;2023-07-13T07:48:37;101401.78;;;22.67;100.00
66164;BME280;52962;51.088;3.096;2023-07-13T07:51:05;101404.63;;;22.13;100.00
66164;BME280;52962;51.088;3.096;2023-07-13T07:53:33;101395.50;;;21.73;100.00
66164;BME280;52962;51.088;3.096;2023-07-13T07:56:02;101406.50;;;21.56;100.00
66164;BME280;52962;51.088;3.096;2023-07-13T07:58:50;101397.69;;;21.48;100.00
66164;BME280;52962;51.088;3.096;2023-07-13T08:01:23;101407.56;;;21.98;100.00
66164;BME280;52962;51.088;3.096;2023-07-13T08:03:54;101402.13;;;22.04;100.00
66164;BME280;52962;51.088;3.096;2023-07-13T08:06:26;101404.34;;;21.78;100.00
66164;BME280;52962;51.088;3.096;2023-07-13T08:09:11;101401.03;;;21.64;100.00
66164;BME280;52962;51.088;3.096;2023-07-13T08:11:40;101400.34;;;22.03;100.00
66164;BME280;52962;51.088;3.096;2023-07-13T08:14:11;101403.69;;;22.62;100.00
66164;BME280;52962;51.088;3.096;2023-07-13T08:16:40;101408.22;;;22.59;100.00
66164;BME280;52962;51.088;3.096;2023-07-13T08:19:09;101404.53;;;22.64;100.00
66164;BME280;52962;51.088;3.096;2023-07-13T08:21:38;101405.94;;;22.83;100.00
66164;BME280;52962;51.088;3.096;2023-07-13T08:24:06;101402.63;;;23.11;100.00
66164;BME280;52962;51.088;3.096;2023-07-13T08:26:34;101405.59;;;23.37;100.00
66164;BME280;52962;51.088;3.096;2023-07-13T08:29:02;101392.63;;;23.56;100.00
66164;BME280;52962;51.088;3.096;2023-07-13T08:31:30;101403.88;;;23.35;100.00
66164;BME280;52962;51.088;3.096;2023-07-13T08:34:00;101402.63;;;23.49;100.00
66164;BME280;52962;51.088;3.096;2023-07-13T08:36:29;101406.44;;;23.78;100.00
66164;BME280;52962;51.088;3.096;2023-07-13T08:38:57;101393.00;;;24.10;100.00
66164;BME280;52962;51.088;3.096;2023-07-13T08:41:26;101400.59;;;23.95;100.00
66164;BME280;52962;51.088;3.096;2023-07-13T08:43:58;101399.03;;;23.88;100.00
66164;BME280;52962;51.088;3.096;2023-07-13T08:46:33;101392.06;;;23.79;100.00
66164;BME280;52962;51.088;3.096;2023-07-13T08:49:06;101389.94;;;24.26;100.00
66164;BME280;52962;51.088;3.096;2023-07-13T08:51:41;101385.53;;;24.54;100.00
66164;BME280;52962;51.088;3.096;2023-07-13T08:54:18;101392.78;;;24.52;100.00
66164;BME280;52962;51.088;3.096;2023-07-13T08:56:48;101388.94;;;24.61;100.00
66164;BME280;52962;51.088;3.096;2023-07-13T08:59:22;101388.09;;;24.59;100.00
66164;BME280;52962;51.088;3.096;2023-07-13T09:02:02;101389.69;;;24.66;100.00
66164;BME280;52962;51.088;3.096;2023-07-13T09:04:41;101395.41;;;24.21;100.00
66164;BME280;52962;51.088;3.096;2023-07-13T09:07:19;101392.31;;;24.02;100.00
66164;BME280;52962;51.088;3.096;2023-07-13T09:10:03;101390.31;;;23.78;100.00
66164;BME280;52962;51.088;3.096;2023-07-13T09:12:40;101398.28;;;23.44;100.00
66164;BME280;52962;51.088;3.096;2023-07-13T09:15:22;101403.34;;;23.19;100.00
66164;BME280;52962;51.088;3.096;2023-07-13T09:17:55;101403.94;;;22.92;100.00
66164;BME280;52962;51.088;3.096;2023-07-13T09:20:31;101407.66;;;22.88;100.00
66164;BME280;52962;51.088;3.096;2023-07-13T09:23:05;101411.47;;;22.74;100.00
66164;BME280;52962;51.088;3.096;2023-07-13T09:25:36;101416.53;;;22.46;100.00
66164;BME280;52962;51.088;3.096;2023-07-13T09:28:15;101419.41;;;22.36;100.00
66164;BME280;52962;51.088;3.096;2023-07-13T09:30:51;101426.56;;;22.35;100.00
66164;BME280;52962;51.088;3.096;2023-07-13T09:33:21;101427.34;;;22.42;100.00
66164;BME280;52962;51.088;3.096;2023-07-13T09:35:52;101430.03;;;22.42;100.00
66164;BME280;52962;51.088;3.096;2023-07-13T09:38:22;101437.41;;;22.31;100.00
66164;BME280;52962;51.088;3.096;2023-07-13T09:41:04;101434.91;;;22.20;100.00
66164;BME280;52962;51.088;3.096;2023-07-13T09:43:39;101441.25;;;22.16;100.00
66164;BME280;52962;51.088;3.096;2023-07-13T09:46:27;101448.84;;;21.88;100.00
66164;BME280;52962;51.088;3.096;2023-07-13T09:48:56;101461.84;;;21.59;100.00
66164;BME280;52962;51.088;3.096;2023-07-13T09:51:26;101463.97;;;21.35;100.00
66164;BME280;52962;51.088;3.096;2023-07-13T09:53:54;101458.97;;;21.08;100.00
66164;BME280;52962;51.088;3.096;2023-07-13T09:56:27;101466.50;;;20.78;100.00
66164;BME280;52962;51.088;3.096;2023-07-13T09:58:56;101472.59;;;20.88;100.00
66164;BME280;52962;51.088;3.096;2023-07-13T10:01:33;101481.75;;;20.70;100.00
66164;BME280;52962;51.088;3.096;2023-07-13T10:04:10;101477.09;;;20.84;100.00
66164;BME280;52962;51.088;3.096;2023-07-13T10:06:41;101471.72;;;20.87;100.00
66164;BME280;52962;51.088;3.096;2023-07-13T10:09:13;101484.13;;;20.95;100.00
66164;BME280;52962;51.088;3.096;2023-07-13T10:11:42;101476.84;;;21.06;100.00
66164;BME280;52962;51.088;3.096;2023-07-13T10:14:14;101469.22;;;21.44;100.00
66164;BME280;52962;51.088;3.096;2023-07-13T10:16:45;101467.13;;;21.65;100.00
66164;BME280;52962;51.088;3.096;2023-07-13T10:19:16;101469.91;;;22.12;100.00
66164;BME280;52962;51.088;3.096;2023-07-13T10:21:53;101469.31;;;22.46;100.00
66164;BME280;52962;51.088;3.096;2023-07-13T10:24:23;101465.38;;;22.65;100.00
66164;BME280;52962;51.088;3.096;2023-07-13T10:26:56;101463.31;;;22.79;100.00
66164;BME280;52962;51.088;3.096;2023-07-13T10:29:27;101469.13;;;23.00;100.00
66164;BME280;52962;51.088;3.096;2023-07-13T10:31:56;101475.66;;;22.88;100.00
66164;BME280;52962;51.088;3.096;2023-07-13T10:34:25;101479.44;;;22.79;100.00
66164;BME280;52962;51.088;3.096;2023-07-13T10:36:55;101483.84;;;22.83;100.00
66164;BME280;52962;51.088;3.096;2023-07-13T10:39:25;101482.72;;;22.92;100.00
66164;BME280;52962;51.088;3.096;2023-07-13T10:41:58;101482.56;;;23.00;100.00
66164;BME280;52962;51.088;3.096;2023-07-13T10:44:29;101479.59;;;23.13;100.00
66164;BME280;52962;51.088;3.096;2023-07-13T10:47:00;101486.41;;;23.30;100.00
66164;BME280;52962;51.088;3.096;2023-07-13T10:49:31;101477.47;;;23.29;100.00
66164;BME280;52962;51.088;3.096;2023-07-13T10:52:02;101478.91;;;23.04;100.00
66164;BME280;52962;51.088;3.096;2023-07-13T10:54:31;101484.22;;;23.07;100.00
66164;BME280;52962;51.088;3.096;2023-07-13T10:57:15;101479.09;;;22.95;100.00
66164;BME280;52962;51.088;3.096;2023-07-13T10:59:47;101480.00;;;22.94;100.00
66164;BME280;52962;51.088;3.096;2023-07-13T11:02:24;101473.53;;;23.04;100.00
66164;BME280;52962;51.088;3.096;2023-07-13T11:04:56;101471.03;;;23.36;100.00
66164;BME280;52962;51.088;3.096;2023-07-13T11:07:29;101476.88;;;23.57;100.00
66164;BME280;52962;51.088;3.096;2023-07-13T11:10:03;101466.81;;;23.65;100.00
66164;BME280;52962;51.088;3.096;2023-07-13T11:12:51;101471.69;;;23.86;100.00
66164;BME280;52962;51.088;3.096;2023-07-13T11:15:44;101459.97;;;23.89;100.00
66164;BME280;52962;51.088;3.096;2023-07-13T11:18:23;101460.84;;;23.89;100.00
66164;BME280;52962;51.088;3.096;2023-07-13T11:21:12;101458.72;;;23.66;100.00
66164;BME280;52962;51.088;3.096;2023-07-13T11:24:04;101466.19;;;23.52;100.00
66164;BME280;52962;51.088;3.096;2023-07-13T11:26:50;101460.41;;;23.30;100.00
66164;BME280;52962;51.088;3.096;2023-07-13T11:29:32;101464.63;;;23.42;100.00
66164;BME280;52962;51.088;3.096;2023-07-13T11:32:21;101465.28;;;23.53;100.00
66164;BME280;52962;51.088;3.096;2023-07-13T11:34:50;101462.50;;;23.58;100.00
66164;BME280;52962;51.088;3.096;2023-07-13T11:37:19;101454.50;;;23.55;100.00
66164;BME280;52962;51.088;3.096;2023-07-13T11:39:51;101454.28;;;23.64;100.00
66164;BME280;52962;51.088;3.096;2023-07-13T11:42:21;101452.38;;;23.69;100.00
66164;BME280;52962;51.088;3.096;2023-07-13T11:44:50;101458.56;;;23.72;100.00
66164;BME280;52962;51.088;3.096;2023-07-13T11:47:40;101459.53;;;23.70;100.00
66164;BME280;52962;51.088;3.096;2023-07-13T11:50:18;101455.84;;;23.74;100.00
66164;BME280;52962;51.088;3.096;2023-07-13T11:52:46;101448.78;;;23.70;100.00
66164;BME280;52962;51.088;3.096;2023-07-13T11:55:20;101458.34;;;23.82;100.00
66164;BME280;52962;51.088;3.096;2023-07-13T11:57:50;101458.69;;;24.02;100.00
66164;BME280;52962;51.088;3.096;2023-07-13T12:00:22;101458.06;;;24.28;100.00
66164;BME280;52962;51.088;3.096;2023-07-13T12:02:55;101449.75;;;24.37;100.00
66164;BME280;52962;51.088;3.096;2023-07-13T12:05:24;101442.84;;;24.27;100.00
66164;BME280;52962;51.088;3.096;2023-07-13T12:07:53;101458.31;;;24.17;100.00
66164;BME280;52962;51.088;3.096;2023-07-13T12:10:25;101461.28;;;24.06;100.00
66164;BME280;52962;51.088;3.096;2023-07-13T12:12:57;101449.13;;;24.26;100.00
66164;BME280;52962;51.088;3.096;2023-07-13T12:15:38;101457.72;;;24.40;100.00
66164;BME280;52962;51.088;3.096;2023-07-13T12:18:12;101460.44;;;24.40;100.00
66164;BME280;52962;51.088;3.096;2023-07-13T12:20:41;101452.50;;;24.34;100.00
66164;BME280;52962;51.088;3.096;2023-07-13T12:23:19;101454.88;;;24.46;100.00
66164;BME280;52962;51.088;3.096;2023-07-13T12:25:50;101450.16;;;24.54;100.00
66164;BME280;52962;51.088;3.096;2023-07-13T12:28:28;101455.03;;;24.72;100.00
66164;BME280;52962;51.088;3.096;2023-07-13T12:30:59;101448.88;;;24.67;100.00
66164;BME280;52962;51.088;3.096;2023-07-13T12:33:29;101450.69;;;24.67;100.00
66164;BME280;52962;51.088;3.096;2023-07-13T12:36:00;101450.44;;;24.76;100.00
66164;BME280;52962;51.088;3.096;2023-07-13T12:38:30;101450.75;;;24.65;100.00
66164;BME280;52962;51.088;3.096;2023-07-13T12:41:01;101449.72;;;24.69;100.00
66164;BME280;52962;51.088;3.096;2023-07-13T12:43:36;101442.06;;;24.87;100.00
66164;BME280;52962;51.088;3.096;2023-07-13T12:46:16;101452.25;;;24.75;100.00
66164;BME280;52962;51.088;3.096;2023-07-13T12:48:48;101444.78;;;24.85;100.00
66164;BME280;52962;51.088;3.096;2023-07-13T12:51:34;101447.22;;;24.94;100.00
66164;BME280;52962;51.088;3.096;2023-07-13T12:54:13;101455.91;;;24.73;100.00
66164;BME280;52962;51.088;3.096;2023-07-13T12:56:45;101451.50;;;24.70;100.00
66164;BME280;52962;51.088;3.096;2023-07-13T12:59:20;101457.31;;;24.55;100.00
66164;BME280;52962;51.088;3.096;2023-07-13T13:01:50;101453.44;;;24.33;100.00